sensor_id;sensor_type;location;lat;lon;timestamp;temperature;humidity
30973;DHT22;25423;45.624;13.790;2023-01-24T00:01:24;7.80;99.90
30973;DHT22;25423;45.624;13.790;2023-01-24T00:03:50;7.80;99.90
30973;DHT22;25423;45.624;13.790;2023-01-24T00:06:16;8.00;99.90
30973;DHT22;25423;45.624;13.790;2023-01-24T00:08:41;7.90;99.90
30973;DHT22;25423;45.624;13.790;2023-01-24T00:11:09;7.90;99.90
30973;DHT22;25423;45.624;13.790;2023-01-24T00:13:34;7.90;99.90
30973;DHT22;25423;45.624;13.790;2023-01-24T00:16:01;7.90;99.90
30973;DHT22;25423;45.624;13.790;2023-01-24T00:18:27;7.90;99.90
30973;DHT22;25423;45.624;13.790;2023-01-24T00:20:59;8.00;99.90
30973;DHT22;25423;45.624;13.790;2023-01-24T00:23:25;8.00;99.90
30973;DHT22;25423;45.624;13.790;2023-01-24T00:25:50;7.90;99.90
30973;DHT22;25423;45.624;13.790;2023-01-24T00:28:16;8.00;99.90
30973;DHT22;25423;45.624;13.790;2023-01-24T00:30:41;8.00;99.90
30973;DHT22;25423;45.624;13.790;2023-01-24T00:33:07;8.00;99.90
30973;DHT22;25423;45.624;13.790;2023-01-24T00:35:32;8.10;99.90
30973;DHT22;25423;45.624;13.790;2023-01-24T00:37:58;8.00;99.90
30973;DHT22;25423;45.624;13.790;2023-01-24T00:40:23;8.10;99.90
30973;DHT22;25423;45.624;13.790;2023-01-24T00:42:49;8.10;99.90
30973;DHT22;25423;45.624;13.790;2023-01-24T00:45:16;8.10;99.90
30973;DHT22;25423;45.624;13.790;2023-01-24T00:47:41;8.10;99.90
30973;DHT22;25423;45.624;13.790;2023-01-24T00:50:07;8.10;99.90
30973;DHT22;25423;45.624;13.790;2023-01-24T00:52:33;8.10;99.90
30973;DHT22;25423;45.624;13.790;2023-01-24T00:54:58;8.10;99.90
30973;DHT22;25423;45.624;13.790;2023-01-24T00:57:25;8.10;99.90
30973;DHT22;25423;45.624;13.790;2023-01-24T00:59:55;8.10;99.90
30973;DHT22;25423;45.624;13.790;2023-01-24T01:02:21;8.10;99.90
30973;DHT22;25423;45.624;13.790;2023-01-24T01:04:47;8.10;99.90
30973;DHT22;25423;45.624;13.790;2023-01-24T01:07:13;8.20;99.90
30973;DHT22;25423;45.624;13.790;2023-01-24T01:09:39;8.10;99.90
30973;DHT22;25423;45.624;13.790;2023-01-24T01:12:04;8.10;99.90
30973;DHT22;25423;45.624;13.790;2023-01-24T01:14:30;8.20;99.90
30973;DHT22;25423;45.624;13.790;2023-01-24T01:16:55;8.20;99.90
30973;DHT22;25423;45.624;13.790;2023-01-24T01:19:21;8.10;99.90
30973;DHT22;25423;45.624;13.790;2023-01-24T01:21:47;8.10;99.90
30973;DHT22;25423;45.624;13.790;2023-01-24T01:24:13;8.10;99.90
30973;DHT22;25423;45.624;13.790;2023-01-24T01:26:39;8.10;99.90
30973;DHT22;25423;45.624;13.790;2023-01-24T01:29:04;8.10;99.90
30973;DHT22;25423;45.624;13.790;2023-01-24T01:31:30;8.10;99.90
30973;DHT22;25423;45.624;13.790;2023-01-24T01:33:55;8.10;99.90
30973;DHT22;25423;45.624;13.790;2023-01-24T01:36:21;8.00;99.90
30973;DHT22;25423;45.624;13.790;2023-01-24T01:38:46;8.10;99.90
30973;DHT22;25423;45.624;13.790;2023-01-24T01:41:12;8.10;99.90
30973;DHT22;25423;45.624;13.790;2023-01-24T01:43:38;8.10;99.90
30973;DHT22;25423;45.624;13.790;2023-01-24T01:46:24;8.10;99.90
30973;DHT22;25423;45.624;13.790;2023-01-24T01:48:51;8.00;99.90
30973;DHT22;25423;45.624;13.790;2023-01-24T01:51:19;7.90;99.90
30973;DHT22;25423;45.624;13.790;2023-01-24T01:53:53;7.90;99.90
30973;DHT22;25423;45.624;13.790;2023-01-24T01:56:25;7.90;99.90
30973;DHT22;25423;45.624;13.790;2023-01-24T01:58:52;7.90;99.90
30973;DHT22;25423;45.624;13.790;2023-01-24T02:01:19;8.10;99.90
30973;DHT22;25423;45.624;13.790;2023-01-24T02:03:57;8.10;99.90
30973;DHT22;25423;45.624;13.790;2023-01-24T02:06:37;8.00;99.90
30973;DHT22;25423;45.624;13.790;2023-01-24T02:09:06;7.90;99.90
30973;DHT22;25423;45.624;13.790;2023-01-24T02:11:32;7.90;99.90
30973;DHT22;25423;45.624;13.790;2023-01-24T02:14:04;7.90;99.90
30973;DHT22;25423;45.624;13.790;2023-01-24T02:16:49;7.90;99.90
30973;DHT22;25423;45.624;13.790;2023-01-24T02:19:18;7.80;99.90
30973;DHT22;25423;45.624;13.790;2023-01-24T02:21:47;7.80;99.90
30973;DHT22;25423;45.624;13.790;2023-01-24T02:24:29;7.80;99.90
30973;DHT22;25423;45.624;13.790;2023-01-24T02:26:57;7.80;99.90
30973;DHT22;25423;45.624;13.790;2023-01-24T02:29:22;7.80;99.90
30973;DHT22;25423;45.624;13.790;2023-01-24T02:31:52;7.80;99.90
30973;DHT22;25423;45.624;13.790;2023-01-24T02:34:18;7.90;99.90
30973;DHT22;25423;45.624;13.790;2023-01-24T02:36:43;7.90;99.90
30973;DHT22;25423;45.624;13.790;2023-01-24T02:39:14;8.00;99.90
30973;DHT22;25423;45.624;13.790;2023-01-24T02:41:52;8.00;99.90
30973;DHT22;25423;45.624;13.790;2023-01-24T02:44:19;8.00;99.90
30973;DHT22;25423;45.624;13.790;2023-01-24T02:46:46;8.00;99.90
30973;DHT22;25423;45.624;13.790;2023-01-24T02:49:12;8.00;99.90
30973;DHT22;25423;45.624;13.790;2023-01-24T02:51:38;8.10;99.90
30973;DHT22;25423;45.624;13.790;2023-01-24T02:54:22;8.00;99.90
30973;DHT22;25423;45.624;13.790;2023-01-24T02:56:48;8.10;99.90
30973;DHT22;25423;45.624;13.790;2023-01-24T02:59:32;8.10;99.90
30973;DHT22;25423;45.624;13.790;2023-01-24T03:01:57;8.20;99.90
30973;DHT22;25423;45.624;13.790;2023-01-24T03:04:23;8.20;99.90
30973;DHT22;25423;45.624;13.790;2023-01-24T03:06:49;8.20;99.90
30973;DHT22;25423;45.624;13.790;2023-01-24T03:09:15;8.30;99.90
30973;DHT22;25423;45.624;13.790;2023-01-24T03:11:47;8.30;99.90
30973;DHT22;25423;45.624;13.790;2023-01-24T03:14:13;8.20;99.90
30973;DHT22;25423;45.624;13.790;2023-01-24T03:16:57;8.20;99.90
30973;DHT22;25423;45.624;13.790;2023-01-24T03:19:41;8.20;99.90
30973;DHT22;25423;45.624;13.790;2023-01-24T03:22:26;8.20;99.90
30973;DHT22;25423;45.624;13.790;2023-01-24T03:25:10;8.10;99.90
30973;DHT22;25423;45.624;13.790;2023-01-24T03:27:54;8.30;99.90
30973;DHT22;25423;45.624;13.790;2023-01-24T03:30:38;8.30;99.90
30973;DHT22;25423;45.624;13.790;2023-01-24T03:33:23;8.30;99.90
30973;DHT22;25423;45.624;13.790;2023-01-24T03:36:07;8.20;99.90
30973;DHT22;25423;45.624;13.790;2023-01-24T03:38:33;8.10;99.90
30973;DHT22;25423;45.624;13.790;2023-01-24T03:41:17;8.20;99.90
30973;DHT22;25423;45.624;13.790;2023-01-24T03:43:42;8.10;99.90
30973;DHT22;25423;45.624;13.790;2023-01-24T03:46:11;8.10;99.90
30973;DHT22;25423;45.624;13.790;2023-01-24T03:48:36;8.10;99.90
30973;DHT22;25423;45.624;13.790;2023-01-24T03:51:02;8.10;99.90
30973;DHT22;25423;45.624;13.790;2023-01-24T03:53:47;8.00;99.90
30973;DHT22;25423;45.624;13.790;2023-01-24T03:56:12;8.10;99.90
30973;DHT22;25423;45.624;13.790;2023-01-24T03:58:38;8.10;99.90
30973;DHT22;25423;45.624;13.790;2023-01-24T04:01:04;8.00;99.90
30973;DHT22;25423;45.624;13.790;2023-01-24T04:03:29;8.00;99.90
30973;DHT22;25423;45.624;13.790;2023-01-24T04:05:58;7.90;99.90
30973;DHT22;25423;45.624;13.790;2023-01-24T04:08:24;7.90;99.90
30973;DHT22;25423;45.624;13.790;2023-01-24T04:10:49;8.00;99.90
30973;DHT22;25423;45.624;13.790;2023-01-24T04:13:15;8.10;99.90
30973;DHT22;25423;45.624;13.790;2023-01-24T04:15:41;8.20;99.90
30973;DHT22;25423;45.624;13.790;2023-01-24T04:18:06;8.20;99.90
30973;DHT22;25423;45.624;13.790;2023-01-24T04:20:34;8.20;99.90
30973;DHT22;25423;45.624;13.790;2023-01-24T04:23:05;8.20;99.90
30973;DHT22;25423;45.624;13.790;2023-01-24T04:25:31;8.20;99.90
30973;DHT22;25423;45.624;13.790;2023-01-24T04:27:56;8.30;99.90
30973;DHT22;25423;45.624;13.790;2023-01-24T04:30:22;8.30;99.90
30973;DHT22;25423;45.624;13.790;2023-01-24T04:32:47;8.30;99.90
30973;DHT22;25423;45.624;13.790;2023-01-24T04:35:17;8.20;99.90
30973;DHT22;25423;45.624;13.790;2023-01-24T04:37:44;8.30;99.90
30973;DHT22;25423;45.624;13.790;2023-01-24T04:40:09;8.30;99.90
30973;DHT22;25423;45.624;13.790;2023-01-24T04:42:37;8.40;99.90
30973;DHT22;25423;45.624;13.790;2023-01-24T04:45:02;8.50;99.90
30973;DHT22;25423;45.624;13.790;2023-01-24T04:47:28;8.50;99.90
30973;DHT22;25423;45.624;13.790;2023-01-24T04:49:53;8.30;99.90
30973;DHT22;25423;45.624;13.790;2023-01-24T04:52:19;8.30;99.90
30973;DHT22;25423;45.624;13.790;2023-01-24T04:54:45;8.30;99.90
30973;DHT22;25423;45.624;13.790;2023-01-24T04:57:11;8.40;99.90
30973;DHT22;25423;45.624;13.790;2023-01-24T04:59:37;8.30;99.90
30973;DHT22;25423;45.624;13.790;2023-01-24T05:02:04;8.20;99.90
30973;DHT22;25423;45.624;13.790;2023-01-24T05:04:31;8.20;99.90
30973;DHT22;25423;45.624;13.790;2023-01-24T05:06:58;8.10;99.90
30973;DHT22;25423;45.624;13.790;2023-01-24T05:09:25;8.10;99.90
30973;DHT22;25423;45.624;13.790;2023-01-24T05:11:50;8.00;99.90
30973;DHT22;25423;45.624;13.790;2023-01-24T05:14:16;8.00;99.90
30973;DHT22;25423;45.624;13.790;2023-01-24T05:16:41;8.00;99.90
30973;DHT22;25423;45.624;13.790;2023-01-24T05:19:07;8.00;99.90
30973;DHT22;25423;45.624;13.790;2023-01-24T05:21:33;8.00;99.90
30973;DHT22;25423;45.624;13.790;2023-01-24T05:23:58;7.90;99.90
30973;DHT22;25423;45.624;13.790;2023-01-24T05:26:25;7.90;99.90
30973;DHT22;25423;45.624;13.790;2023-01-24T05:28:51;8.00;99.90
30973;DHT22;25423;45.624;13.790;2023-01-24T05:31:17;8.00;99.90
30973;DHT22;25423;45.624;13.790;2023-01-24T05:33:42;8.00;99.90
30973;DHT22;25423;45.624;13.790;2023-01-24T05:36:12;8.00;99.90
30973;DHT22;25423;45.624;13.790;2023-01-24T05:38:38;7.90;99.90
30973;DHT22;25423;45.624;13.790;2023-01-24T05:41:08;7.90;99.90
30973;DHT22;25423;45.624;13.790;2023-01-24T05:43:34;7.90;99.90
30973;DHT22;25423;45.624;13.790;2023-01-24T05:46:02;7.90;99.90
30973;DHT22;25423;45.624;13.790;2023-01-24T05:48:28;7.90;99.90
30973;DHT22;25423;45.624;13.790;2023-01-24T05:51:00;7.90;99.90
30973;DHT22;25423;45.624;13.790;2023-01-24T05:53:26;7.80;99.90
30973;DHT22;25423;45.624;13.790;2023-01-24T05:55:59;7.80;99.90
30973;DHT22;25423;45.624;13.790;2023-01-24T05:58:26;7.80;99.90
30973;DHT22;25423;45.624;13.790;2023-01-24T06:00:51;7.80;99.90
30973;DHT22;25423;45.624;13.790;2023-01-24T06:03:17;7.80;99.90
30973;DHT22;25423;45.624;13.790;2023-01-24T06:05:49;7.80;99.90
30973;DHT22;25423;45.624;13.790;2023-01-24T06:08:15;7.90;99.90
30973;DHT22;25423;45.624;13.790;2023-01-24T06:10:41;7.90;99.90
30973;DHT22;25423;45.624;13.790;2023-01-24T06:13:07;7.90;99.90
30973;DHT22;25423;45.624;13.790;2023-01-24T06:15:33;7.90;99.90
30973;DHT22;25423;45.624;13.790;2023-01-24T06:17:58;8.10;99.90
30973;DHT22;25423;45.624;13.790;2023-01-24T06:20:24;8.10;99.90
30973;DHT22;25423;45.624;13.790;2023-01-24T06:22:51;8.00;99.90
30973;DHT22;25423;45.624;13.790;2023-01-24T06:25:21;8.00;99.90
30973;DHT22;25423;45.624;13.790;2023-01-24T06:27:48;8.00;99.90
30973;DHT22;25423;45.624;13.790;2023-01-24T06:30:14;8.10;99.90
30973;DHT22;25423;45.624;13.790;2023-01-24T06:37:59;8.20;99.90
30973;DHT22;25423;45.624;13.790;2023-01-24T06:40:25;8.20;99.90
30973;DHT22;25423;45.624;13.790;2023-01-24T06:42:51;8.20;99.90
30973;DHT22;25423;45.624;13.790;2023-01-24T06:45:17;8.20;99.90
30973;DHT22;25423;45.624;13.790;2023-01-24T06:47:43;8.20;99.90
30973;DHT22;25423;45.624;13.790;2023-01-24T06:50:27;8.10;99.90
30973;DHT22;25423;45.624;13.790;2023-01-24T06:52:56;8.10;99.90
30973;DHT22;25423;45.624;13.790;2023-01-24T06:55:22;8.00;99.90
30973;DHT22;25423;45.624;13.790;2023-01-24T06:57:57;8.10;99.90
30973;DHT22;25423;45.624;13.790;2023-01-24T07:00:23;8.20;99.90
30973;DHT22;25423;45.624;13.790;2023-01-24T07:02:59;8.20;99.90
30973;DHT22;25423;45.624;13.790;2023-01-24T07:05:26;8.20;99.90
30973;DHT22;25423;45.624;13.790;2023-01-24T07:07:52;8.30;99.90
30973;DHT22;25423;45.624;13.790;2023-01-24T07:10:17;8.20;99.90
30973;DHT22;25423;45.624;13.790;2023-01-24T07:12:43;8.20;99.90
30973;DHT22;25423;45.624;13.790;2023-01-24T07:15:09;8.30;99.90
30973;DHT22;25423;45.624;13.790;2023-01-24T07:17:34;8.40;99.90
30973;DHT22;25423;45.624;13.790;2023-01-24T07:20:00;8.50;99.90
30973;DHT22;25423;45.624;13.790;2023-01-24T07:22:26;8.50;99.90
30973;DHT22;25423;45.624;13.790;2023-01-24T07:24:51;8.60;99.90
30973;DHT22;25423;45.624;13.790;2023-01-24T07:27:17;8.60;99.90
30973;DHT22;25423;45.624;13.790;2023-01-24T07:29:43;8.60;99.90
30973;DHT22;25423;45.624;13.790;2023-01-24T07:32:09;8.70;99.90
30973;DHT22;25423;45.624;13.790;2023-01-24T07:34:35;8.50;99.90
30973;DHT22;25423;45.624;13.790;2023-01-24T07:37:00;8.50;99.90
30973;DHT22;25423;45.624;13.790;2023-01-24T07:39:29;8.40;99.90
30973;DHT22;25423;45.624;13.790;2023-01-24T07:41:54;8.50;99.90
30973;DHT22;25423;45.624;13.790;2023-01-24T07:44:20;8.50;99.90
30973;DHT22;25423;45.624;13.790;2023-01-24T07:46:45;8.50;99.90
30973;DHT22;25423;45.624;13.790;2023-01-24T07:49:11;8.40;99.90
30973;DHT22;25423;45.624;13.790;2023-01-24T07:51:36;8.50;99.90
30973;DHT22;25423;45.624;13.790;2023-01-24T07:54:02;8.50;99.90
30973;DHT22;25423;45.624;13.790;2023-01-24T07:56:28;8.50;99.90
30973;DHT22;25423;45.624;13.790;2023-01-24T07:58:53;8.60;99.90
30973;DHT22;25423;45.624;13.790;2023-01-24T08:01:19;8.60;99.90
30973;DHT22;25423;45.624;13.790;2023-01-24T08:03:45;8.60;99.90
30973;DHT22;25423;45.624;13.790;2023-01-24T08:06:11;8.60;99.90
30973;DHT22;25423;45.624;13.790;2023-01-24T08:08:37;8.60;99.90
30973;DHT22;25423;45.624;13.790;2023-01-24T08:11:03;8.70;99.90
30973;DHT22;25423;45.624;13.790;2023-01-24T08:13:28;8.70;99.90
30973;DHT22;25423;45.624;13.790;2023-01-24T08:15:54;8.80;99.90
30973;DHT22;25423;45.624;13.790;2023-01-24T08:18:19;8.80;99.90
30973;DHT22;25423;45.624;13.790;2023-01-24T08:20:45;8.80;99.90
30973;DHT22;25423;45.624;13.790;2023-01-24T08:23:11;8.90;99.90
30973;DHT22;25423;45.624;13.790;2023-01-24T08:25:36;9.00;99.90
30973;DHT22;25423;45.624;13.790;2023-01-24T08:28:02;9.00;99.90
30973;DHT22;25423;45.624;13.790;2023-01-24T08:30:27;9.20;99.90
30973;DHT22;25423;45.624;13.790;2023-01-24T08:33:03;9.20;99.90
30973;DHT22;25423;45.624;13.790;2023-01-24T08:35:29;9.20;99.90
30973;DHT22;25423;45.624;13.790;2023-01-24T08:37:55;9.30;99.90
30973;DHT22;25423;45.624;13.790;2023-01-24T08:40:20;9.40;99.90
30973;DHT22;25423;45.624;13.790;2023-01-24T08:42:46;9.50;99.90
30973;DHT22;25423;45.624;13.790;2023-01-24T08:45:11;9.60;99.90
30973;DHT22;25423;45.624;13.790;2023-01-24T08:47:37;9.70;99.90
30973;DHT22;25423;45.624;13.790;2023-01-24T08:50:03;9.80;99.90
30973;DHT22;25423;45.624;13.790;2023-01-24T08:52:28;9.90;99.90
30973;DHT22;25423;45.624;13.790;2023-01-24T08:54:54;9.90;99.90
30973;DHT22;25423;45.624;13.790;2023-01-24T08:57:19;10.00;99.90
30973;DHT22;25423;45.624;13.790;2023-01-24T08:59:45;10.00;99.90
30973;DHT22;25423;45.624;13.790;2023-01-24T09:02:11;10.00;99.90
30973;DHT22;25423;45.624;13.790;2023-01-24T09:04:38;10.00;99.90
30973;DHT22;25423;45.624;13.790;2023-01-24T09:07:04;10.10;99.90
30973;DHT22;25423;45.624;13.790;2023-01-24T09:09:29;10.20;99.90
30973;DHT22;25423;45.624;13.790;2023-01-24T09:11:55;10.20;99.90
30973;DHT22;25423;45.624;13.790;2023-01-24T09:14:21;10.20;99.90
30973;DHT22;25423;45.624;13.790;2023-01-24T09:16:46;10.10;99.90
30973;DHT22;25423;45.624;13.790;2023-01-24T09:19:12;10.20;99.90
30973;DHT22;25423;45.624;13.790;2023-01-24T09:21:38;10.20;99.90
30973;DHT22;25423;45.624;13.790;2023-01-24T09:24:03;10.10;99.90
30973;DHT22;25423;45.624;13.790;2023-01-24T09:26:29;10.10;99.90
30973;DHT22;25423;45.624;13.790;2023-01-24T09:28:54;10.10;99.90
30973;DHT22;25423;45.624;13.790;2023-01-24T09:31:23;10.20;99.90
30973;DHT22;25423;45.624;13.790;2023-01-24T09:33:48;10.10;99.90
30973;DHT22;25423;45.624;13.790;2023-01-24T09:36:14;10.10;99.90
30973;DHT22;25423;45.624;13.790;2023-01-24T09:38:39;10.10;99.90
30973;DHT22;25423;45.624;13.790;2023-01-24T09:41:12;10.10;99.90
30973;DHT22;25423;45.624;13.790;2023-01-24T09:43:43;10.20;99.90
30973;DHT22;25423;45.624;13.790;2023-01-24T09:46:20;10.20;99.90
30973;DHT22;25423;45.624;13.790;2023-01-24T09:48:48;10.20;99.90
30973;DHT22;25423;45.624;13.790;2023-01-24T09:51:19;10.30;99.90
30973;DHT22;25423;45.624;13.790;2023-01-24T09:53:47;10.30;99.90
30973;DHT22;25423;45.624;13.790;2023-01-24T09:56:19;10.30;99.90
30973;DHT22;25423;45.624;13.790;2023-01-24T10:01:37;10.30;99.90
30973;DHT22;25423;45.624;13.790;2023-01-24T10:04:13;10.30;99.90
30973;DHT22;25423;45.624;13.790;2023-01-24T10:06:39;10.30;99.90
30973;DHT22;25423;45.624;13.790;2023-01-24T10:09:43;10.40;99.90
30973;DHT22;25423;45.624;13.790;2023-01-24T10:14:52;10.40;99.90
30973;DHT22;25423;45.624;13.790;2023-01-24T10:25:02;10.40;99.90
30973;DHT22;25423;45.624;13.790;2023-01-24T10:27:32;10.40;99.90
30973;DHT22;25423;45.624;13.790;2023-01-24T10:30:02;10.40;99.90
30973;DHT22;25423;45.624;13.790;2023-01-24T10:32:34;10.40;99.90
30973;DHT22;25423;45.624;13.790;2023-01-24T10:35:14;10.50;99.90
30973;DHT22;25423;45.624;13.790;2023-01-24T10:37:42;10.50;99.90
30973;DHT22;25423;45.624;13.790;2023-01-24T10:40:11;10.70;99.90
30973;DHT22;25423;45.624;13.790;2023-01-24T10:42:36;10.70;99.90
30973;DHT22;25423;45.624;13.790;2023-01-24T10:47:50;10.90;99.90
30973;DHT22;25423;45.624;13.790;2023-01-24T10:50:22;10.90;99.90
30973;DHT22;25423;45.624;13.790;2023-01-24T10:52:49;10.80;99.90
30973;DHT22;25423;45.624;13.790;2023-01-24T10:55:36;10.70;99.90
30973;DHT22;25423;45.624;13.790;2023-01-24T10:58:16;10.70;99.90
30973;DHT22;25423;45.624;13.790;2023-01-24T11:00:42;10.70;99.90
30973;DHT22;25423;45.624;13.790;2023-01-24T11:03:19;10.70;99.90
30973;DHT22;25423;45.624;13.790;2023-01-24T11:05:49;10.70;99.90
30973;DHT22;25423;45.624;13.790;2023-01-24T11:11:20;10.70;99.90
30973;DHT22;25423;45.624;13.790;2023-01-24T11:13:46;10.60;99.90
30973;DHT22;25423;45.624;13.790;2023-01-24T11:18:43;10.50;99.90
30973;DHT22;25423;45.624;13.790;2023-01-24T11:21:14;10.60;99.90
30973;DHT22;25423;45.624;13.790;2023-01-24T11:23:40;10.50;99.90
30973;DHT22;25423;45.624;13.790;2023-01-24T11:26:22;10.50;99.90
30973;DHT22;25423;45.624;13.790;2023-01-24T11:28:58;10.60;99.90
30973;DHT22;25423;45.624;13.790;2023-01-24T11:31:29;10.50;99.90
30973;DHT22;25423;45.624;13.790;2023-01-24T11:33:58;10.50;99.90
30973;DHT22;25423;45.624;13.790;2023-01-24T11:39:16;10.50;99.90
30973;DHT22;25423;45.624;13.790;2023-01-24T11:41:49;10.50;99.90
30973;DHT22;25423;45.624;13.790;2023-01-24T11:52:02;10.40;99.90
30973;DHT22;25423;45.624;13.790;2023-01-24T12:12:43;10.40;99.90
30973;DHT22;25423;45.624;13.790;2023-01-24T12:22:46;10.10;99.90
30973;DHT22;25423;45.624;13.790;2023-01-24T12:27:43;10.10;99.90
30973;DHT22;25423;45.624;13.790;2023-01-24T12:30:15;10.00;99.90
30973;DHT22;25423;45.624;13.790;2023-01-24T12:32:53;9.90;99.90
30973;DHT22;25423;45.624;13.790;2023-01-24T12:35:30;9.90;99.90
30973;DHT22;25423;45.624;13.790;2023-01-24T12:38:44;9.90;99.90
30973;DHT22;25423;45.624;13.790;2023-01-24T12:43:17;9.80;99.90
30973;DHT22;25423;45.624;13.790;2023-01-24T12:53:31;9.70;99.90
30973;DHT22;25423;45.624;13.790;2023-01-24T12:58:36;9.40;99.90
30973;DHT22;25423;45.624;13.790;2023-01-24T13:06:38;8.90;99.90
30973;DHT22;25423;45.624;13.790;2023-01-24T13:11:43;8.70;99.90
30973;DHT22;25423;45.624;13.790;2023-01-24T13:14:21;8.70;99.90
30973;DHT22;25423;45.624;13.790;2023-01-24T13:27:22;8.70;99.90
30973;DHT22;25423;45.624;13.790;2023-01-24T13:32:29;8.70;99.90
30973;DHT22;25423;45.624;13.790;2023-01-24T13:34:56;8.80;99.90
30973;DHT22;25423;45.624;13.790;2023-01-24T13:37:23;8.80;99.90
30973;DHT22;25423;45.624;13.790;2023-01-24T13:39:58;8.80;99.90
30973;DHT22;25423;45.624;13.790;2023-01-24T13:42:32;8.90;99.90
30973;DHT22;25423;45.624;13.790;2023-01-24T13:44:57;8.90;99.90
30973;DHT22;25423;45.624;13.790;2023-01-24T13:47:24;8.90;99.90
30973;DHT22;25423;45.624;13.790;2023-01-24T13:54:56;8.90;99.90
30973;DHT22;25423;45.624;13.790;2023-01-24T13:57:26;8.90;99.90
30973;DHT22;25423;45.624;13.790;2023-01-24T14:02:34;8.80;99.90
30973;DHT22;25423;45.624;13.790;2023-01-24T14:05:01;8.80;99.90
30973;DHT22;25423;45.624;13.790;2023-01-24T14:07:29;8.80;99.90
30973;DHT22;25423;45.624;13.790;2023-01-24T14:10:01;8.80;99.90
30973;DHT22;25423;45.624;13.790;2023-01-24T14:12:27;8.90;99.90
30973;DHT22;25423;45.624;13.790;2023-01-24T14:14:58;8.80;99.90
30973;DHT22;25423;45.624;13.790;2023-01-24T14:17:26;8.90;99.90
30973;DHT22;25423;45.624;13.790;2023-01-24T14:19:54;8.90;99.90
30973;DHT22;25423;45.624;13.790;2023-01-24T14:22:21;8.90;99.90
30973;DHT22;25423;45.624;13.790;2023-01-24T14:24:56;8.90;99.90
30973;DHT22;25423;45.624;13.790;2023-01-24T14:29:49;8.80;99.90
30973;DHT22;25423;45.624;13.790;2023-01-24T14:32:18;8.80;99.90
30973;DHT22;25423;45.624;13.790;2023-01-24T14:34:47;8.90;99.90
30973;DHT22;25423;45.624;13.790;2023-01-24T14:37:16;8.90;99.90
30973;DHT22;25423;45.624;13.790;2023-01-24T14:39:42;8.80;99.90
30973;DHT22;25423;45.624;13.790;2023-01-24T14:42:15;8.80;99.90
30973;DHT22;25423;45.624;13.790;2023-01-24T14:44:58;8.80;99.90
30973;DHT22;25423;45.624;13.790;2023-01-24T14:47:24;8.80;99.90
30973;DHT22;25423;45.624;13.790;2023-01-24T14:49:54;8.80;99.90
30973;DHT22;25423;45.624;13.790;2023-01-24T14:52:29;8.70;99.90
30973;DHT22;25423;45.624;13.790;2023-01-24T14:54:55;8.70;99.90
30973;DHT22;25423;45.624;13.790;2023-01-24T14:57:25;8.60;99.90
30973;DHT22;25423;45.624;13.790;2023-01-24T15:00:33;8.60;99.90
30973;DHT22;25423;45.624;13.790;2023-01-24T15:02:50;8.50;99.90
30973;DHT22;25423;45.624;13.790;2023-01-24T15:07:54;8.50;99.90
30973;DHT22;25423;45.624;13.790;2023-01-24T15:12:55;8.50;99.90
30973;DHT22;25423;45.624;13.790;2023-01-24T15:15:22;8.50;99.90
30973;DHT22;25423;45.624;13.790;2023-01-24T15:17:48;8.50;99.90
30973;DHT22;25423;45.624;13.790;2023-01-24T15:20:23;8.40;99.90
30973;DHT22;25423;45.624;13.790;2023-01-24T15:22:53;8.40;99.90
30973;DHT22;25423;45.624;13.790;2023-01-24T15:25:25;8.40;99.90
30973;DHT22;25423;45.624;13.790;2023-01-24T15:27:50;8.40;99.90
30973;DHT22;25423;45.624;13.790;2023-01-24T15:30:20;8.40;99.90
30973;DHT22;25423;45.624;13.790;2023-01-24T15:32:47;8.40;99.90
30973;DHT22;25423;45.624;13.790;2023-01-24T15:37:43;8.40;99.90
30973;DHT22;25423;45.624;13.790;2023-01-24T15:40:16;8.40;99.90
30973;DHT22;25423;45.624;13.790;2023-01-24T15:42:46;8.40;99.90
30973;DHT22;25423;45.624;13.790;2023-01-24T15:45:31;8.50;99.90
30973;DHT22;25423;45.624;13.790;2023-01-24T15:50:55;8.40;99.90
30973;DHT22;25423;45.624;13.790;2023-01-24T15:53:36;8.40;99.90
30973;DHT22;25423;45.624;13.790;2023-01-24T15:56:03;8.50;99.90
30973;DHT22;25423;45.624;13.790;2023-01-24T15:58:29;8.50;99.90
30973;DHT22;25423;45.624;13.790;2023-01-24T16:00:59;8.50;99.90
30973;DHT22;25423;45.624;13.790;2023-01-24T16:03:25;8.40;99.90
30973;DHT22;25423;45.624;13.790;2023-01-24T16:05:51;8.50;99.90
30973;DHT22;25423;45.624;13.790;2023-01-24T16:08:17;8.50;99.90
30973;DHT22;25423;45.624;13.790;2023-01-24T16:10:43;8.40;99.90
30973;DHT22;25423;45.624;13.790;2023-01-24T16:15:50;8.40;99.90
30973;DHT22;25423;45.624;13.790;2023-01-24T16:18:16;8.50;99.90
30973;DHT22;25423;45.624;13.790;2023-01-24T16:20:42;8.50;99.90
30973;DHT22;25423;45.624;13.790;2023-01-24T16:23:07;8.50;99.90
30973;DHT22;25423;45.624;13.790;2023-01-24T16:25:33;8.50;99.90
30973;DHT22;25423;45.624;13.790;2023-01-24T16:27:59;8.50;99.90
30973;DHT22;25423;45.624;13.790;2023-01-24T16:30:25;8.50;99.90
30973;DHT22;25423;45.624;13.790;2023-01-24T16:32:51;8.50;99.90
30973;DHT22;25423;45.624;13.790;2023-01-24T16:35:17;8.50;99.90
30973;DHT22;25423;45.624;13.790;2023-01-24T16:37:43;8.50;99.90
30973;DHT22;25423;45.624;13.790;2023-01-24T16:40:09;8.50;99.90
30973;DHT22;25423;45.624;13.790;2023-01-24T16:42:37;8.50;99.90
30973;DHT22;25423;45.624;13.790;2023-01-24T16:45:03;8.50;99.90
30973;DHT22;25423;45.624;13.790;2023-01-24T16:47:29;8.50;99.90
30973;DHT22;25423;45.624;13.790;2023-01-24T16:49:55;8.50;99.90
30973;DHT22;25423;45.624;13.790;2023-01-24T16:52:22;8.50;99.90
30973;DHT22;25423;45.624;13.790;2023-01-24T16:54:48;8.50;99.90
30973;DHT22;25423;45.624;13.790;2023-01-24T16:57:14;8.50;99.90
30973;DHT22;25423;45.624;13.790;2023-01-24T16:59:39;8.50;99.90
30973;DHT22;25423;45.624;13.790;2023-01-24T17:02:05;8.60;99.90
30973;DHT22;25423;45.624;13.790;2023-01-24T17:04:31;8.60;99.90
30973;DHT22;25423;45.624;13.790;2023-01-24T17:06:57;8.70;99.90
30973;DHT22;25423;45.624;13.790;2023-01-24T17:09:31;8.70;99.90
30973;DHT22;25423;45.624;13.790;2023-01-24T17:11:57;8.60;99.90
30973;DHT22;25423;45.624;13.790;2023-01-24T17:14:23;8.70;99.90
30973;DHT22;25423;45.624;13.790;2023-01-24T17:16:49;8.70;99.90
30973;DHT22;25423;45.624;13.790;2023-01-24T17:19:15;8.80;99.90
30973;DHT22;25423;45.624;13.790;2023-01-24T17:21:41;8.80;99.90
30973;DHT22;25423;45.624;13.790;2023-01-24T17:24:07;8.70;99.90
30973;DHT22;25423;45.624;13.790;2023-01-24T17:26:32;8.70;99.90
30973;DHT22;25423;45.624;13.790;2023-01-24T17:28:58;8.70;99.90
30973;DHT22;25423;45.624;13.790;2023-01-24T17:31:24;8.80;99.90
30973;DHT22;25423;45.624;13.790;2023-01-24T17:33:49;8.70;99.90
30973;DHT22;25423;45.624;13.790;2023-01-24T17:36:15;8.70;99.90
30973;DHT22;25423;45.624;13.790;2023-01-24T17:38:41;8.70;99.90